createdAt,value
2019-06-07T00:00:57.859Z,11.33
2019-06-07T00:03:30.237Z,14.38
2019-06-07T00:06:00.248Z,11.18
2019-06-07T00:08:30.681Z,10.95
2019-06-07T00:11:01.045Z,12.80
2019-06-07T00:13:31.380Z,10.88
2019-06-07T00:16:03.771Z,12.03
2019-06-07T00:18:34.143Z,12.50
2019-06-07T00:21:04.828Z,12.00
2019-06-07T00:23:35.131Z,12.73
2019-06-07T00:26:05.631Z,11.55
2019-06-07T00:28:36.059Z,10.20
2019-06-07T00:31:06.542Z,10.78
2019-06-07T00:33:36.917Z,10.65
2019-06-07T00:36:07.310Z,10.43
2019-06-07T00:38:37.643Z,10.15
2019-06-07T00:41:08.110Z,10.90
2019-06-07T00:43:38.483Z,12.35
2019-06-07T00:46:08.907Z,9.95
2019-06-07T00:48:39.213Z,12.88
2019-06-07T00:51:09.572Z,10.65
2019-06-07T00:53:39.888Z,11.78
2019-06-07T00:56:11.398Z,10.30
2019-06-07T00:58:42.055Z,11.70
2019-06-07T01:01:13.714Z,10.50
2019-06-07T01:03:44.679Z,10.78
2019-06-07T01:06:17.452Z,10.35
2019-06-07T01:08:47.422Z,9.93
2019-06-07T01:11:20.587Z,10.18
2019-06-07T01:13:49.809Z,8.70
2019-06-07T01:16:22.224Z,10.45
2019-06-07T01:18:53.244Z,10.13
2019-06-07T01:21:28.659Z,10.70
2019-06-07T01:24:10.682Z,11.57
2019-06-07T01:26:30.197Z,11.43
2019-06-07T01:28:59.639Z,12.65
2019-06-07T01:31:31.646Z,12.07
2019-06-07T01:34:02.339Z,11.08
2019-06-07T01:36:33.977Z,11.95
2019-06-07T01:39:05.402Z,13.03
2019-06-07T01:41:36.061Z,12.88
2019-06-07T01:44:06.407Z,13.20
2019-06-07T01:46:36.813Z,11.63
2019-06-07T01:49:07.197Z,13.65
2019-06-07T01:51:37.608Z,13.78
2019-06-07T01:56:42.081Z,17.48
2019-06-07T01:59:12.455Z,14.70
2019-06-07T02:01:42.870Z,14.35
2019-06-07T02:04:13.170Z,12.93
2019-06-07T02:06:43.564Z,15.63
2019-06-07T02:09:13.899Z,12.93
2019-06-07T02:11:44.358Z,13.45
2019-06-07T02:14:15.663Z,14.13
2019-06-07T02:16:45.930Z,14.85
2019-06-07T02:19:16.347Z,13.45
2019-06-07T02:21:46.725Z,15.98
2019-06-07T02:24:17.202Z,14.18
2019-06-07T02:26:47.602Z,13.93
2019-06-07T02:29:18.158Z,13.20
2019-06-07T02:31:49.628Z,13.95
2019-06-07T02:34:21.456Z,12.10
2019-06-07T02:36:52.038Z,13.60
2019-06-07T02:39:24.019Z,12.98
2019-06-07T02:41:54.384Z,14.53
2019-06-07T02:44:29.859Z,12.20
2019-06-07T02:46:56.738Z,12.68
2019-06-07T02:49:31.384Z,12.70
2019-06-07T02:52:00.376Z,14.65
2019-06-07T02:54:36.171Z,12.33
2019-06-07T02:57:02.759Z,12.20
2019-06-07T02:59:54.845Z,12.07
2019-06-07T03:02:05.145Z,12.05
2019-06-07T03:04:42.052Z,11.10
2019-06-07T03:07:12.267Z,10.58
2019-06-07T03:09:43.482Z,11.00
2019-06-07T03:12:16.478Z,10.70
2019-06-07T03:14:47.893Z,10.65
2019-06-07T03:17:38.898Z,10.53
2019-06-07T03:20:11.598Z,12.28
2019-06-07T03:22:44.016Z,10.10
2019-06-07T03:25:14.883Z,9.48
2019-06-07T03:27:49.944Z,10.05
2019-06-07T03:30:41.561Z,10.13
2019-06-07T03:32:52.173Z,11.40
2019-06-07T03:35:23.795Z,11.63
2019-06-07T03:37:54.107Z,11.22
2019-06-07T03:40:24.465Z,13.38
2019-06-07T03:42:54.733Z,13.05
2019-06-07T03:45:25.097Z,10.70
2019-06-07T03:47:55.533Z,10.13
2019-06-07T03:50:28.319Z,13.05
2019-06-07T03:52:57.845Z,12.58
2019-06-07T03:55:30.368Z,12.10
2019-06-07T03:58:30.902Z,12.95
2019-06-07T04:00:34.901Z,12.98
2019-06-07T04:03:04.505Z,12.30
2019-06-07T04:05:38.853Z,11.20
2019-06-07T04:08:06.848Z,11.57
2019-06-07T04:10:55.915Z,12.25
2019-06-07T04:13:09.568Z,11.28
2019-06-07T04:15:41.459Z,14.13
2019-06-07T04:18:12.079Z,13.55
2019-06-07T04:20:42.502Z,15.53
2019-06-07T04:23:27.667Z,12.85
2019-06-07T04:25:45.838Z,9.35
2019-06-07T04:28:16.174Z,11.25
2019-06-07T04:30:47.361Z,11.88
2019-06-07T04:33:17.682Z,13.48
2019-06-07T04:35:48.103Z,18.27
2019-06-07T04:38:18.412Z,11.68
2019-06-07T04:40:50.678Z,13.88
2019-06-07T04:43:20.979Z,12.60
2019-06-07T04:45:52.104Z,15.15
2019-06-07T04:48:22.606Z,16.37
2019-06-07T04:50:55.427Z,13.68
2019-06-07T04:53:25.833Z,12.35
2019-06-07T04:55:56.898Z,12.47
2019-06-07T04:58:27.267Z,11.90
2019-06-07T05:01:03.219Z,10.60
2019-06-07T05:03:34.524Z,12.65
2019-06-07T05:06:01.591Z,12.98
2019-06-07T05:08:35.149Z,12.63
2019-06-07T05:11:04.653Z,13.25
2019-06-07T05:13:38.432Z,11.95
2019-06-07T05:16:07.753Z,11.28
2019-06-07T05:18:42.626Z,11.93
2019-06-07T05:21:10.064Z,10.72
2019-06-07T05:24:05.657Z,13.22
2019-06-07T05:26:12.681Z,11.25
2019-06-07T05:28:43.346Z,11.93
2019-06-07T05:31:13.930Z,13.08
2019-06-07T05:33:44.259Z,14.00
2019-06-07T05:36:14.619Z,11.48
2019-06-07T05:38:45.287Z,10.93
2019-06-07T05:41:15.745Z,10.03
2019-06-07T05:44:00.235Z,11.33
2019-06-07T05:46:18.898Z,10.32
2019-06-07T05:48:49.249Z,11.35
2019-06-07T05:51:19.688Z,11.73
2019-06-07T05:53:50.159Z,11.53
2019-06-07T05:56:20.567Z,12.37
2019-06-07T05:58:50.904Z,9.15
2019-06-07T06:03:53.320Z,12.05
2019-06-07T06:06:23.684Z,11.15
2019-06-07T06:09:12.833Z,12.85
2019-06-07T06:11:42.955Z,10.15
2019-06-07T06:14:07.378Z,11.40
2019-06-07T06:16:30.679Z,11.33
2019-06-07T06:19:01.150Z,10.98
2019-06-07T06:21:31.523Z,9.38
2019-06-07T06:24:03.457Z,9.25
2019-06-07T06:26:33.795Z,11.25
2019-06-07T06:29:04.585Z,9.73
2019-06-07T06:31:34.972Z,9.35
2019-06-07T06:34:05.530Z,11.10
2019-06-07T06:36:37.348Z,9.60
2019-06-07T06:39:08.534Z,9.65
2019-06-07T06:41:51.532Z,9.33
2019-06-07T06:44:10.977Z,8.68
2019-06-07T06:46:47.217Z,9.00
2019-06-07T06:49:14.610Z,9.88
2019-06-07T06:51:50.031Z,9.65
2019-06-07T06:54:37.246Z,8.20
2019-06-07T06:56:52.043Z,8.98
2019-06-07T06:59:37.966Z,8.43
2019-06-07T07:01:52.955Z,8.63
2019-06-07T07:04:23.768Z,9.30
2019-06-07T07:06:55.340Z,7.33
2019-06-07T07:09:28.577Z,8.90
2019-06-07T07:12:11.150Z,9.98
2019-06-07T07:14:31.148Z,8.05
2019-06-07T07:17:01.490Z,8.28
2019-06-07T07:19:31.841Z,8.23
2019-06-07T07:22:03.785Z,10.82
2019-06-07T07:24:34.187Z,9.15
2019-06-07T07:27:04.580Z,7.80
2019-06-07T07:29:34.904Z,7.83
2019-06-07T07:32:05.304Z,7.03
2019-06-07T07:34:37.309Z,6.40
2019-06-07T07:37:07.594Z,8.20
2019-06-07T07:39:37.946Z,7.08
2019-06-07T07:42:20.791Z,6.62
2019-06-07T07:44:40.407Z,6.75
2019-06-07T07:47:10.839Z,6.72
2019-06-07T07:49:41.176Z,9.73
2019-06-07T07:52:11.625Z,5.78
2019-06-07T07:54:41.990Z,6.95
2019-06-07T07:57:12.386Z,5.78
2019-06-07T08:00:00.530Z,7.37
2019-06-07T08:02:14.799Z,7.47
2019-06-07T08:07:17.338Z,6.33
2019-06-07T08:09:50.526Z,8.10
2019-06-07T08:12:19.664Z,6.70
2019-06-07T08:14:51.284Z,6.47
2019-06-07T08:17:22.026Z,6.83
2019-06-07T08:19:55.020Z,6.67
2019-06-07T08:22:24.359Z,5.70
2019-06-07T08:24:55.980Z,7.58
2019-06-07T08:27:27.139Z,6.42
2019-06-07T08:30:15.745Z,6.58
2019-06-07T08:32:29.850Z,5.87
2019-06-07T08:35:05.836Z,5.80
2019-06-07T08:38:14.167Z,8.33
2019-06-07T08:40:07.142Z,7.08
2019-06-07T08:42:59.486Z,6.85
2019-06-07T08:45:13.964Z,6.95
2019-06-07T08:47:44.658Z,4.70
2019-06-07T08:50:17.769Z,6.28
2019-06-07T08:52:48.040Z,6.35
2019-06-07T08:55:18.987Z,7.22
2019-06-07T08:57:49.360Z,6.60
2019-06-07T09:00:43.307Z,10.43
2019-06-07T09:02:53.179Z,6.33
2019-06-07T09:05:24.029Z,6.70
2019-06-07T09:08:21.196Z,5.40
2019-06-07T09:10:26.978Z,5.85
2019-06-07T09:13:03.074Z,9.33
2019-06-07T09:15:32.393Z,6.10
2019-06-07T09:18:37.787Z,5.90
2019-06-07T09:20:46.568Z,9.63
2019-06-07T09:23:17.970Z,6.05
2019-06-07T09:26:04.911Z,6.47
2019-06-07T09:28:21.855Z,5.05
2019-06-07T09:30:52.781Z,6.37
2019-06-07T09:33:23.266Z,5.75
2019-06-07T09:35:53.762Z,6.40
2019-06-07T09:38:26.532Z,6.37
2019-06-07T09:40:57.610Z,5.40
2019-06-07T09:44:00.957Z,6.85
2019-06-07T09:46:02.062Z,6.85
2019-06-07T09:49:09.927Z,6.67
2019-06-07T09:51:09.586Z,7.03
2019-06-07T09:53:36.308Z,7.30
2019-06-07T09:56:11.176Z,5.60
2019-06-07T09:58:54.418Z,5.75
2019-06-07T10:01:13.682Z,6.00
2019-06-07T10:03:43.261Z,6.28
2019-06-07T10:06:14.094Z,6.10
2019-06-07T10:11:19.532Z,4.50
2019-06-07T10:13:49.869Z,5.50
2019-06-07T10:16:20.262Z,7.17
2019-06-07T10:18:50.604Z,9.68
2019-06-07T10:21:20.958Z,7.15
2019-06-07T10:23:51.527Z,5.65
2019-06-07T10:26:21.897Z,6.50
2019-06-07T10:28:53.578Z,5.85
2019-06-07T10:31:24.250Z,5.12
2019-06-07T10:33:54.640Z,5.60
2019-06-07T10:36:24.994Z,6.75
2019-06-07T10:38:55.318Z,7.05
2019-06-07T10:41:25.839Z,5.00
2019-06-07T10:43:56.421Z,4.87
2019-06-07T10:46:26.827Z,6.40
2019-06-07T10:48:57.202Z,3.62
2019-06-07T10:51:27.519Z,5.12
2019-06-07T10:53:57.947Z,5.78
2019-06-07T10:56:28.272Z,6.67
2019-06-07T10:58:58.596Z,6.05
2019-06-07T11:01:28.958Z,5.85
2019-06-07T11:03:59.363Z,4.95
2019-06-07T11:06:31.408Z,4.78
2019-06-07T11:09:02.196Z,5.03
2019-06-07T11:11:33.775Z,5.00
2019-06-07T11:14:04.514Z,3.95
2019-06-07T11:16:34.818Z,5.00
2019-06-07T11:19:06.057Z,6.30
2019-06-07T11:21:36.644Z,3.67
2019-06-07T11:24:08.064Z,4.90
2019-06-07T11:26:38.639Z,4.65
2019-06-07T11:29:10.729Z,4.62
2019-06-07T11:31:41.899Z,4.55
2019-06-07T11:34:12.530Z,5.65
2019-06-07T11:36:43.205Z,4.92
2019-06-07T11:39:15.145Z,4.80
2019-06-07T11:41:45.846Z,3.75
2019-06-07T11:44:17.208Z,4.28
2019-06-07T11:46:47.759Z,3.90
2019-06-07T11:49:20.300Z,4.00
2019-06-07T11:51:50.530Z,3.37
2019-06-07T11:54:20.993Z,4.12
2019-06-07T11:56:51.368Z,3.25
2019-06-07T11:59:22.994Z,4.20
2019-06-07T12:01:53.376Z,4.22
2019-06-07T12:04:34.346Z,3.85
2019-06-07T12:06:57.256Z,3.45
2019-06-07T12:09:28.187Z,3.95
2019-06-07T12:11:58.581Z,3.85
2019-06-07T12:14:28.964Z,2.52
2019-06-07T12:17:00.027Z,4.22
2019-06-07T12:19:30.655Z,3.75
2019-06-07T12:22:00.968Z,4.00
2019-06-07T12:24:31.347Z,3.92
2019-06-07T12:27:01.824Z,3.72
2019-06-07T12:29:34.018Z,4.05
2019-06-07T12:32:04.365Z,3.87
2019-06-07T12:34:35.866Z,4.35
2019-06-07T12:37:06.216Z,3.98
2019-06-07T12:39:36.535Z,4.60
2019-06-07T12:42:06.990Z,4.37
2019-06-07T12:44:37.431Z,3.70
2019-06-07T12:47:07.767Z,4.17
2019-06-07T12:49:38.100Z,4.55
2019-06-07T12:52:08.433Z,4.45
2019-06-07T12:54:38.785Z,5.15
2019-06-07T12:57:09.177Z,4.95
2019-06-07T12:59:39.922Z,4.80
2019-06-07T13:02:11.456Z,4.20
2019-06-07T13:04:41.983Z,4.00
2019-06-07T13:07:12.346Z,4.08
2019-06-07T13:09:42.658Z,4.65
2019-06-07T13:12:13.079Z,3.92
2019-06-07T13:14:43.513Z,5.65
2019-06-07T13:17:13.922Z,3.75
2019-06-07T13:19:44.267Z,4.65
2019-06-07T13:22:16.097Z,5.65
2019-06-07T13:24:46.678Z,4.97
2019-06-07T13:27:18.217Z,5.03
2019-06-07T13:29:48.759Z,4.95
2019-06-07T13:32:19.581Z,5.42
2019-06-07T13:34:50.043Z,3.35
2019-06-07T13:37:21.124Z,4.28
2019-06-07T13:39:52.700Z,3.22
2019-06-07T13:42:24.659Z,5.35
2019-06-07T13:44:55.233Z,4.58
2019-06-07T13:47:25.598Z,4.42
2019-06-07T13:49:55.940Z,5.90
2019-06-07T13:52:26.281Z,5.22
2019-06-07T13:54:56.678Z,4.70
2019-06-07T13:57:28.079Z,4.78
2019-06-07T13:59:58.581Z,5.50
2019-06-07T14:02:29.862Z,3.70
2019-06-07T14:05:00.287Z,4.70
2019-06-07T14:07:30.780Z,4.90
2019-06-07T14:10:01.149Z,4.95
2019-06-07T14:12:31.551Z,4.95
2019-06-07T14:15:04.576Z,4.65
2019-06-07T14:17:34.939Z,4.22
2019-06-07T14:20:06.778Z,6.33
2019-06-07T14:22:37.748Z,6.53
2019-06-07T14:25:09.094Z,4.45
2019-06-07T14:27:39.611Z,6.28
2019-06-07T14:30:10.290Z,4.92
2019-06-07T14:32:40.645Z,4.60
2019-06-07T14:35:11.430Z,4.60
2019-06-07T14:37:41.673Z,5.03
2019-06-07T14:40:12.555Z,5.03
2019-06-07T14:42:42.902Z,4.65
2019-06-07T14:45:13.843Z,5.15
2019-06-07T14:47:44.285Z,5.62
2019-06-07T14:50:16.362Z,5.50
2019-06-07T14:52:46.615Z,6.25
2019-06-07T14:55:17.440Z,5.75
2019-06-07T14:57:48.618Z,5.33
2019-06-07T15:00:19.726Z,5.67
2019-06-07T15:02:50.057Z,5.87
2019-06-07T15:05:24.618Z,6.50
2019-06-07T15:07:54.993Z,6.60
2019-06-07T15:10:26.611Z,6.20
2019-06-07T15:12:57.089Z,6.22
2019-06-07T15:15:28.332Z,7.47
2019-06-07T15:18:00.263Z,10.32
2019-06-07T15:20:32.075Z,6.42
2019-06-07T15:23:02.597Z,7.65
2019-06-07T15:25:33.287Z,8.05
2019-06-07T15:28:03.675Z,9.13
2019-06-07T15:30:34.083Z,7.17
2019-06-07T15:33:04.848Z,8.20
2019-06-07T15:35:36.031Z,9.00
2019-06-07T15:38:07.170Z,7.75
2019-06-07T15:40:39.471Z,8.30
2019-06-07T15:43:09.613Z,8.05
2019-06-07T15:45:41.074Z,8.80
2019-06-07T15:48:11.604Z,7.83
2019-06-07T15:50:41.975Z,7.35
2019-06-07T15:53:12.362Z,8.93
2019-06-07T15:55:45.612Z,7.80
2019-06-07T15:58:14.970Z,5.95
2019-06-07T16:00:45.381Z,8.18
2019-06-07T16:03:15.771Z,7.65
2019-06-07T16:05:46.199Z,8.05
2019-06-07T16:08:16.660Z,8.08
2019-06-07T16:10:47.071Z,8.80
2019-06-07T16:13:17.499Z,8.70
2019-06-07T16:15:47.873Z,8.63
2019-06-07T16:18:18.277Z,11.18
2019-06-07T16:20:48.669Z,9.13
2019-06-07T16:23:20.932Z,13.72
2019-06-07T16:25:51.609Z,7.92
2019-06-07T16:28:21.997Z,8.38
2019-06-07T16:30:52.336Z,8.70
2019-06-07T16:33:22.847Z,9.48
2019-06-07T16:35:53.138Z,8.23
2019-06-07T16:38:23.487Z,8.70
2019-06-07T16:40:53.904Z,8.15
2019-06-07T16:43:24.302Z,6.90
2019-06-07T16:45:54.631Z,8.75
2019-06-07T16:48:25.009Z,8.18
2019-06-07T16:50:56.563Z,8.40
2019-06-07T16:53:27.013Z,9.15
2019-06-07T16:55:57.407Z,8.38
2019-06-07T16:58:27.771Z,8.88
2019-06-07T17:00:59.473Z,7.87
2019-06-07T17:03:29.835Z,9.33
2019-06-07T17:06:00.231Z,8.15
2019-06-07T17:08:30.634Z,9.28
2019-06-07T17:11:01.066Z,6.70
2019-06-07T17:13:33.876Z,7.78
2019-06-07T17:16:03.569Z,7.28
2019-06-07T17:18:36.985Z,7.55
2019-06-07T17:21:05.952Z,6.75
2019-06-07T17:23:36.334Z,9.00
2019-06-07T17:26:06.723Z,7.12
2019-06-07T17:28:37.123Z,8.18
2019-06-07T17:31:07.753Z,7.30
2019-06-07T17:33:38.127Z,7.83
2019-06-07T17:36:08.462Z,8.45
2019-06-07T17:38:38.857Z,8.78
2019-06-07T17:41:09.228Z,8.88
2019-06-07T17:43:50.533Z,9.20
2019-06-07T17:46:12.055Z,8.60
2019-06-07T17:48:43.510Z,9.63
2019-06-07T17:51:13.989Z,9.45
2019-06-07T17:53:45.734Z,9.73
2019-06-07T17:56:16.335Z,10.60
2019-06-07T17:58:46.963Z,10.38
2019-06-07T18:01:17.353Z,10.68
2019-06-07T18:03:49.203Z,11.40
2019-06-07T18:06:21.065Z,11.80
2019-06-07T18:08:53.812Z,10.00
2019-06-07T18:11:24.131Z,10.80
2019-06-07T18:14:08.515Z,10.93
2019-06-07T18:16:26.591Z,10.30
2019-06-07T18:18:56.978Z,11.80
2019-06-07T18:21:27.356Z,13.35
2019-06-07T18:23:58.647Z,12.25
2019-06-07T18:26:29.346Z,12.60
2019-06-07T18:28:59.727Z,16.32
2019-06-07T18:31:30.298Z,19.45
2019-06-07T18:34:01.630Z,13.30
2019-06-07T18:36:31.999Z,13.20
2019-06-07T18:39:02.486Z,13.53
2019-06-07T18:41:34.646Z,12.28
2019-06-07T18:44:20.492Z,13.45
2019-06-07T18:46:37.523Z,12.25
2019-06-07T18:49:07.890Z,13.22
2019-06-07T18:51:38.523Z,11.50
2019-06-07T18:54:08.907Z,13.62
2019-06-07T18:56:39.294Z,14.25
2019-06-07T18:59:09.678Z,59.18
2019-06-07T19:01:40.035Z,13.62
2019-06-07T19:04:10.506Z,12.65
2019-06-07T19:06:42.289Z,14.78
2019-06-07T19:09:12.735Z,12.90
2019-06-07T19:11:43.079Z,13.53
2019-06-07T19:14:13.523Z,12.03
2019-06-07T19:16:44.119Z,14.13
2019-06-07T19:19:14.604Z,14.20
2019-06-07T19:21:45.162Z,14.53
2019-06-07T19:24:15.555Z,11.15
2019-06-07T19:26:45.976Z,12.58
2019-06-07T19:29:16.384Z,15.43
2019-06-07T19:31:46.785Z,14.00
2019-06-07T19:34:19.358Z,11.48
2019-06-07T19:36:49.888Z,13.80
2019-06-07T19:39:20.316Z,15.50
2019-06-07T19:41:51.810Z,14.98
2019-06-07T19:44:22.485Z,15.53
2019-06-07T19:46:54.257Z,13.22
2019-06-07T19:49:25.844Z,15.80
2019-06-07T19:51:56.964Z,15.98
2019-06-07T19:54:27.721Z,12.53
2019-06-07T19:56:59.410Z,14.25
2019-06-07T19:59:29.906Z,13.15
2019-06-07T20:02:00.282Z,15.80
2019-06-07T20:04:30.769Z,16.82
2019-06-07T20:07:03.492Z,17.07
2019-06-07T20:09:34.020Z,15.13
2019-06-07T20:12:04.840Z,15.72
2019-06-07T20:14:35.207Z,17.95
2019-06-07T20:17:05.788Z,16.70
2019-06-07T20:19:36.144Z,20.25
2019-06-07T20:22:06.465Z,16.37
2019-06-07T20:24:38.171Z,19.98
2019-06-07T20:27:08.901Z,20.72
2019-06-07T20:29:39.262Z,17.17
2019-06-07T20:32:09.757Z,17.55
2019-06-07T20:34:44.137Z,19.17
2019-06-07T20:37:12.394Z,18.62
2019-06-07T20:39:42.904Z,20.70
2019-06-07T20:42:13.439Z,21.30
2019-06-07T20:44:43.817Z,21.85
2019-06-07T20:47:14.278Z,22.25
2019-06-07T20:49:44.633Z,20.17
2019-06-07T20:52:15.058Z,21.10
2019-06-07T20:54:45.436Z,20.75
2019-06-07T20:57:15.927Z,23.65
2019-06-07T20:59:46.768Z,21.65
2019-06-07T21:02:17.354Z,24.52
2019-06-07T21:04:47.796Z,26.80
2019-06-07T21:07:18.300Z,22.20
2019-06-07T21:09:48.730Z,22.52
2019-06-07T21:12:19.186Z,25.55
2019-06-07T21:14:49.615Z,23.95
2019-06-07T21:17:19.980Z,24.85
2019-06-07T21:19:50.363Z,26.07
2019-06-07T21:22:20.769Z,23.73
2019-06-07T21:24:51.286Z,22.55
2019-06-07T21:27:21.671Z,25.90
2019-06-07T21:29:52.131Z,23.32
2019-06-07T21:32:22.452Z,23.02
2019-06-07T21:34:52.789Z,24.57
2019-06-07T21:37:23.174Z,24.98
2019-06-07T21:39:53.600Z,23.30
2019-06-07T21:42:24.034Z,21.35
2019-06-07T21:44:54.561Z,23.55
2019-06-07T21:47:24.864Z,23.80
2019-06-07T21:49:55.352Z,22.80
2019-06-07T21:52:25.695Z,22.55
2019-06-07T21:54:56.104Z,23.50
2019-06-07T21:57:26.544Z,21.30
2019-06-07T21:59:56.952Z,21.15
2019-06-07T22:02:27.405Z,21.82
2019-06-07T22:04:57.818Z,23.40
2019-06-07T22:07:28.230Z,23.07
2019-06-07T22:09:58.652Z,22.30
2019-06-07T22:12:29.136Z,22.15
2019-06-07T22:14:59.578Z,21.37
2019-06-07T22:17:29.956Z,23.32
2019-06-07T22:20:00.281Z,27.17
2019-06-07T22:22:30.777Z,23.02
2019-06-07T22:25:01.185Z,26.65
2019-06-07T22:27:31.696Z,25.25
2019-06-07T22:30:02.091Z,25.60
2019-06-07T22:32:34.132Z,25.40
2019-06-07T22:35:04.630Z,25.25
2019-06-07T22:37:35.052Z,27.15
2019-06-07T22:40:06.311Z,27.20
2019-06-07T22:42:36.800Z,26.73
2019-06-07T22:45:08.168Z,25.97
2019-06-07T22:47:38.731Z,27.87
2019-06-07T22:50:10.834Z,27.10
2019-06-07T22:52:41.486Z,28.87
2019-06-07T22:55:13.838Z,27.90
2019-06-07T22:57:58.426Z,26.93
2019-06-07T23:00:30.800Z,22.98
2019-06-07T23:03:01.227Z,24.98
2019-06-07T23:05:31.793Z,23.32
2019-06-07T23:08:02.484Z,26.85
2019-06-07T23:10:32.844Z,25.65
2019-06-07T23:13:03.560Z,28.42
2019-06-07T23:15:34.072Z,28.32
2019-06-07T23:18:04.494Z,27.48
2019-06-07T23:20:34.913Z,27.80
2019-06-07T23:23:05.272Z,29.90
2019-06-07T23:25:35.736Z,26.57
2019-06-07T23:28:06.204Z,29.00
2019-06-07T23:30:36.672Z,30.35
2019-06-07T23:33:07.064Z,27.22
2019-06-07T23:35:37.438Z,28.98
2019-06-07T23:38:07.809Z,29.65
2019-06-07T23:40:38.228Z,33.92
2019-06-07T23:43:08.672Z,27.35
2019-06-07T23:45:39.085Z,27.22
2019-06-07T23:48:09.486Z,31.60
2019-06-07T23:50:41.036Z,34.80
2019-06-07T23:53:11.825Z,32.67
2019-06-07T23:55:42.366Z,31.23
2019-06-07T23:58:13.865Z,31.35
